Time;durP1;ratioP1;P1;durP2;ratioP2;P2;SDS_P1;SDS_P2;PMS_P1;PMS_P2;Temp;Humidity;BMP_temperature;BMP_pressure;BME280_temperature;BME280_humidity;BME280_pressure;Samples;Min_cycle;Max_cycle;Signal;HPM_P1;HPM_P2
2023/12/15 00:00:38;;;;;;;7.30;5.77;;;;;;;;;;4929792;29;20236;-74
2023/12/15 00:03:03;;;;;;;7.20;5.33;;;;;;;;;;4927876;29;20188;-74
2023/12/15 00:05:28;;;;;;;8.23;6.30;;;;;;;;;;4927791;29;20206;-74
2023/12/15 00:07:53;;;;;;;8.67;5.60;;;;;;;;;;4930645;29;20185;-74
2023/12/15 00:10:19;;;;;;;7.17;5.63;;;;;;;;;;4925906;29;20194;-76
2023/12/15 00:12:44;;;;;;;7.90;6.23;;;;;;;;;;4929658;29;20181;-74
2023/12/15 00:15:09;;;;;;;7.77;5.80;;;;;;;;;;4930715;29;20185;-74
2023/12/15 00:17:34;;;;;;;9.10;6.97;;;;;;;;;;4928720;29;20182;-74
2023/12/15 00:20:00;;;;;;;8.43;6.70;;;;;;;;;;4931444;29;20190;-74
2023/12/15 00:22:25;;;;;;;8.60;7.13;;;;;;;;;;4928243;29;20174;-74
2023/12/15 00:24:50;;;;;;;8.60;6.37;;;;;;;;;;4929007;29;20249;-74
2023/12/15 00:27:15;;;;;;;9.90;6.77;;;;;;;;;;4925339;29;20214;-74
2023/12/15 00:29:41;;;;;;;8.73;6.47;;;;;;;;;;4928630;29;20268;-73
2023/12/15 00:32:06;;;;;;;10.63;7.73;;;;;;;;;;4930791;29;20178;-74
2023/12/15 00:34:31;;;;;;;9.27;7.27;;;;;;;;;;4927251;29;20177;-73
2023/12/15 00:36:56;;;;;;;10.03;7.40;;;;;;;;;;4930072;29;20257;-74
2023/12/15 00:39:22;;;;;;;11.40;7.97;;;;;;;;;;4930313;29;20209;-74
2023/12/15 00:41:47;;;;;;;10.43;7.40;;;;;;;;;;4929593;29;20182;-74
2023/12/15 00:44:12;;;;;;;7.60;5.60;;;;;;;;;;4929886;29;20178;-74
2023/12/15 00:46:37;;;;;;;9.53;6.93;;;;;;;;;;4924035;29;20383;-74
2023/12/15 00:49:03;;;;;;;9.13;6.17;;;;;;;;;;4929874;29;20251;-74
2023/12/15 00:51:28;;;;;;;7.23;6.47;;;;;;;;;;4941181;29;20182;-74
2023/12/15 00:53:53;;;;;;;9.43;6.77;;;;;;;;;;4925457;29;20632;-74
2023/12/15 00:56:18;;;;;;;7.73;5.90;;;;;;;;;;4932105;29;20269;-74
2023/12/15 00:58:44;;;;;;;7.57;5.67;;;;;;;;;;4929458;29;20182;-74
2023/12/15 01:01:09;;;;;;;7.30;5.53;;;;;;;;;;4934684;29;20310;-74
2023/12/15 01:03:34;;;;;;;8.03;5.77;;;;;;;;;;4930019;29;20178;-74
2023/12/15 01:05:59;;;;;;;8.57;7.30;;;;;;;;;;4934035;29;20205;-74
2023/12/15 01:08:25;;;;;;;10.73;8.37;;;;;;;;;;4932835;29;20253;-74
2023/12/15 01:10:50;;;;;;;9.47;6.20;;;;;;;;;;4933029;29;20202;-74
2023/12/15 01:13:16;;;;;;;8.60;6.27;;;;;;;;;;4927780;29;20254;-74
2023/12/15 01:15:41;;;;;;;9.23;6.77;;;;;;;;;;4932810;29;20182;-74
2023/12/15 01:18:06;;;;;;;8.27;5.90;;;;;;;;;;4934043;29;20194;-74
2023/12/15 01:20:32;;;;;;;8.10;6.10;;;;;;;;;;4933433;29;20190;-74
2023/12/15 01:22:57;;;;;;;7.60;6.03;;;;;;;;;;4927074;29;20189;-74
2023/12/15 01:25:22;;;;;;;6.27;5.27;;;;;;;;;;4932454;29;20198;-74
2023/12/15 01:27:47;;;;;;;8.30;6.33;;;;;;;;;;4932570;29;20178;-74
2023/12/15 01:30:13;;;;;;;9.90;5.73;;;;;;;;;;4931422;29;20393;-74
2023/12/15 01:32:38;;;;;;;7.10;5.33;;;;;;;;;;4930706;29;20216;-74
2023/12/15 01:35:03;;;;;;;7.17;5.20;;;;;;;;;;4928545;29;20186;-74
2023/12/15 01:37:29;;;;;;;7.17;4.93;;;;;;;;;;4929973;29;20234;-74
2023/12/15 01:39:54;;;;;;;7.17;5.20;;;;;;;;;;4927544;29;20194;-74
2023/12/15 01:42:20;;;;;;;7.33;5.37;;;;;;;;;;4929588;29;20277;-74
2023/12/15 01:44:45;;;;;;;6.60;4.97;;;;;;;;;;4932702;29;20186;-74
2023/12/15 01:47:11;;;;;;;6.67;4.80;;;;;;;;;;4926739;29;20189;-74
2023/12/15 01:49:37;;;;;;;5.80;4.57;;;;;;;;;;4926768;29;20183;-74
2023/12/15 01:52:02;;;;;;;6.80;5.10;;;;;;;;;;4933396;29;20242;-74
2023/12/15 01:54:27;;;;;;;6.30;4.40;;;;;;;;;;4937887;29;20228;-74
2023/12/15 01:56:53;;;;;;;6.27;4.03;;;;;;;;;;4932577;29;20187;-74
2023/12/15 01:59:18;;;;;;;6.47;4.70;;;;;;;;;;4927335;29;20205;-74
2023/12/15 02:01:43;;;;;;;7.43;4.90;;;;;;;;;;4930671;29;20222;-74
2023/12/15 02:04:08;;;;;;;5.87;4.83;;;;;;;;;;4929460;29;20187;-74
2023/12/15 02:06:33;;;;;;;5.80;4.43;;;;;;;;;;4932105;29;20202;-74
2023/12/15 02:08:59;;;;;;;5.73;4.53;;;;;;;;;;4921741;29;20175;-74
2023/12/15 02:11:24;;;;;;;6.03;4.03;;;;;;;;;;4929482;29;20187;-74
2023/12/15 02:13:49;;;;;;;6.73;5.10;;;;;;;;;;4924777;29;20174;-74
2023/12/15 02:16:14;;;;;;;6.87;4.57;;;;;;;;;;4929816;29;20193;-74
2023/12/15 02:18:39;;;;;;;6.23;4.63;;;;;;;;;;4930583;29;20185;-74
2023/12/15 02:21:05;;;;;;;6.77;4.87;;;;;;;;;;4934752;29;20185;-74
2023/12/15 02:23:30;;;;;;;6.00;4.63;;;;;;;;;;4929403;29;21009;-74
2023/12/15 02:25:55;;;;;;;6.13;5.13;;;;;;;;;;4931761;29;20205;-74
2023/12/15 02:28:20;;;;;;;8.13;4.90;;;;;;;;;;4931403;29;20189;-74
2023/12/15 02:30:46;;;;;;;7.43;5.13;;;;;;;;;;4923087;29;20171;-76
2023/12/15 02:33:11;;;;;;;6.23;5.00;;;;;;;;;;4930314;29;20239;-74
2023/12/15 02:35:36;;;;;;;7.63;5.80;;;;;;;;;;4924996;29;20185;-74
2023/12/15 02:38:07;;;;;;;8.03;6.23;;;;;;;;;;4930533;29;20277;-74
2023/12/15 02:40:32;;;;;;;11.00;7.00;;;;;;;;;;4931936;29;20277;-74
2023/12/15 02:42:57;;;;;;;7.43;6.27;;;;;;;;;;4930883;29;20281;-74
2023/12/15 02:45:22;;;;;;;8.53;5.73;;;;;;;;;;4930947;29;20408;-74
2023/12/15 02:47:47;;;;;;;8.10;6.60;;;;;;;;;;4930438;29;20198;-74
2023/12/15 02:50:13;;;;;;;8.93;6.47;;;;;;;;;;4930038;29;20579;-74
2023/12/15 02:52:38;;;;;;;10.13;7.63;;;;;;;;;;4927121;29;20213;-74
2023/12/15 02:55:03;;;;;;;8.97;6.33;;;;;;;;;;4931961;29;20189;-74
2023/12/15 02:57:29;;;;;;;9.03;6.93;;;;;;;;;;4931148;29;20273;-74
2023/12/15 02:59:54;;;;;;;10.37;7.67;;;;;;;;;;4931928;29;20281;-74
2023/12/15 03:02:19;;;;;;;8.83;6.50;;;;;;;;;;4945245;29;20198;-74
2023/12/15 03:04:44;;;;;;;8.93;6.50;;;;;;;;;;4922015;29;20213;-74
2023/12/15 03:07:09;;;;;;;9.47;7.57;;;;;;;;;;4921933;29;20555;-74
2023/12/15 03:09:36;;;;;;;9.27;7.00;;;;;;;;;;4940468;29;20234;-74
2023/12/15 03:12:01;;;;;;;9.33;6.93;;;;;;;;;;4927946;29;20218;-74
2023/12/15 03:14:26;;;;;;;12.73;7.60;;;;;;;;;;4930732;29;20182;-74
2023/12/15 03:16:51;;;;;;;9.93;7.90;;;;;;;;;;4928334;29;20186;-74
2023/12/15 03:19:16;;;;;;;9.57;7.47;;;;;;;;;;4932148;29;20246;-74
2023/12/15 03:21:42;;;;;;;10.13;7.33;;;;;;;;;;4916981;29;20190;-74
2023/12/15 03:24:07;;;;;;;10.77;7.23;;;;;;;;;;4927395;29;20246;-74
2023/12/15 03:26:32;;;;;;;10.63;7.27;;;;;;;;;;4928328;29;21866;-74
2023/12/15 03:28:57;;;;;;;10.53;7.47;;;;;;;;;;4930424;29;20206;-74
2023/12/15 03:31:22;;;;;;;10.47;7.90;;;;;;;;;;4922605;29;20184;-74
2023/12/15 03:33:48;;;;;;;11.80;7.47;;;;;;;;;;4928629;29;20166;-74
2023/12/15 03:36:13;;;;;;;10.33;7.90;;;;;;;;;;4928938;29;20229;-74
2023/12/15 03:38:38;;;;;;;9.77;7.80;;;;;;;;;;4927650;29;20202;-74
2023/12/15 03:41:03;;;;;;;11.60;7.50;;;;;;;;;;4926594;29;20276;-74
2023/12/15 03:43:28;;;;;;;10.50;6.90;;;;;;;;;;4929960;29;20194;-74
2023/12/15 03:45:54;;;;;;;10.47;7.67;;;;;;;;;;4927214;29;20226;-74
2023/12/15 03:48:19;;;;;;;8.33;6.87;;;;;;;;;;4926897;29;20174;-74
2023/12/15 03:50:44;;;;;;;10.93;7.10;;;;;;;;;;4927935;29;20182;-74
2023/12/15 03:53:10;;;;;;;10.67;7.53;;;;;;;;;;4930888;29;20189;-74
2023/12/15 03:55:35;;;;;;;10.37;7.67;;;;;;;;;;4937741;29;20520;-74
2023/12/15 03:58:00;;;;;;;12.20;7.53;;;;;;;;;;4934415;29;20179;-74
2023/12/15 04:00:25;;;;;;;12.27;8.13;;;;;;;;;;4929639;29;20189;-74
2023/12/15 04:02:50;;;;;;;12.23;7.67;;;;;;;;;;4924766;29;20272;-74
2023/12/15 04:05:16;;;;;;;10.60;8.23;;;;;;;;;;4925876;29;20201;-74
2023/12/15 04:07:41;;;;;;;10.53;8.07;;;;;;;;;;4930955;29;20272;-74
2023/12/15 04:10:06;;;;;;;12.20;8.23;;;;;;;;;;4930362;29;20174;-74
2023/12/15 04:12:32;;;;;;;12.47;8.60;;;;;;;;;;4928650;29;20229;-74
2023/12/15 04:14:57;;;;;;;12.73;9.00;;;;;;;;;;4929063;29;20209;-74
2023/12/15 04:17:22;;;;;;;10.60;8.03;;;;;;;;;;4945302;29;20182;-74
2023/12/15 04:19:47;;;;;;;13.87;9.10;;;;;;;;;;4930141;29;20213;-74
2023/12/15 04:22:12;;;;;;;13.87;9.33;;;;;;;;;;4927288;29;20178;-74
2023/12/15 04:24:38;;;;;;;12.23;8.07;;;;;;;;;;4926199;29;20205;-74
2023/12/15 04:27:03;;;;;;;12.90;8.13;;;;;;;;;;4930172;29;20190;-74
2023/12/15 04:29:28;;;;;;;11.53;7.73;;;;;;;;;;4929164;29;20299;-74
2023/12/15 04:31:53;;;;;;;11.20;8.20;;;;;;;;;;4929290;29;20186;-74
2023/12/15 04:34:18;;;;;;;10.63;8.37;;;;;;;;;;4931498;29;20178;-74
2023/12/15 04:36:44;;;;;;;11.07;7.87;;;;;;;;;;4932329;29;20586;-74
2023/12/15 04:39:09;;;;;;;11.53;8.20;;;;;;;;;;4931098;29;20187;-74
2023/12/15 04:41:34;;;;;;;13.83;9.17;;;;;;;;;;4933540;29;20185;-74
2023/12/15 04:43:59;;;;;;;12.93;9.37;;;;;;;;;;4933304;29;20190;-74
2023/12/15 04:46:25;;;;;;;12.13;9.60;;;;;;;;;;4934168;29;20242;-74
2023/12/15 04:48:51;;;;;;;13.80;9.13;;;;;;;;;;4949059;29;20296;-74
2023/12/15 04:51:16;;;;;;;13.73;9.67;;;;;;;;;;4931850;29;20246;-74
2023/12/15 04:53:41;;;;;;;15.23;9.97;;;;;;;;;;4932871;29;20182;-74
2023/12/15 04:56:07;;;;;;;19.33;11.30;;;;;;;;;;4931315;29;20249;-74
2023/12/15 04:58:32;;;;;;;18.07;11.40;;;;;;;;;;4930741;29;20190;-74
2023/12/15 05:00:57;;;;;;;18.87;11.77;;;;;;;;;;4932416;29;20201;-74
2023/12/15 05:03:22;;;;;;;16.23;10.43;;;;;;;;;;4933417;29;20269;-74
2023/12/15 05:05:48;;;;;;;20.10;11.53;;;;;;;;;;4931860;29;20202;-74
2023/12/15 05:08:13;;;;;;;14.47;10.20;;;;;;;;;;4935186;29;20213;-74
2023/12/15 05:10:38;;;;;;;16.63;10.80;;;;;;;;;;4932105;29;20177;-74
2023/12/15 05:13:03;;;;;;;14.67;10.10;;;;;;;;;;4933831;29;20182;-74
2023/12/15 05:15:29;;;;;;;16.63;11.27;;;;;;;;;;4932877;29;20183;-74
2023/12/15 05:17:54;;;;;;;14.93;9.47;;;;;;;;;;4932656;29;20185;-74
2023/12/15 05:20:20;;;;;;;19.10;12.30;;;;;;;;;;4932618;29;20186;-74
2023/12/15 05:22:45;;;;;;;17.80;11.63;;;;;;;;;;4933527;29;20217;-74
2023/12/15 05:25:10;;;;;;;16.43;10.90;;;;;;;;;;4933370;29;20202;-74
2023/12/15 05:27:53;;;;;;;16.60;11.27;;;;;;;;;;4932010;29;20265;-78
2023/12/15 05:30:19;;;;;;;18.20;12.37;;;;;;;;;;4928850;29;20184;-76
2023/12/15 05:32:44;;;;;;;19.70;13.30;;;;;;;;;;4933416;29;20174;-76
2023/12/15 05:35:09;;;;;;;18.93;11.60;;;;;;;;;;4932711;29;20189;-76
2023/12/15 05:37:34;;;;;;;18.97;10.73;;;;;;;;;;4932807;29;20229;-76
2023/12/15 05:39:59;;;;;;;24.93;10.17;;;;;;;;;;4933740;29;20190;-76
2023/12/15 05:42:25;;;;;;;22.30;12.80;;;;;;;;;;4932675;29;20186;-76
2023/12/15 05:44:50;;;;;;;20.30;12.53;;;;;;;;;;4931015;29;20379;-76
2023/12/15 05:47:15;;;;;;;19.83;12.60;;;;;;;;;;4931236;29;20186;-76
2023/12/15 05:49:40;;;;;;;23.53;14.10;;;;;;;;;;4931623;29;20311;-76
2023/12/15 05:52:08;;;;;;;23.70;14.40;;;;;;;;;;4932288;29;20171;-76
2023/12/15 05:54:33;;;;;;;18.83;11.70;;;;;;;;;;4928798;29;20223;-76
2023/12/15 05:56:58;;;;;;;20.43;12.17;;;;;;;;;;4931480;29;20427;-79
2023/12/15 05:59:23;;;;;;;17.90;12.53;;;;;;;;;;4922478;29;20195;-79
2023/12/15 06:01:49;;;;;;;22.40;12.60;;;;;;;;;;4929587;29;20228;-79
2023/12/15 06:04:14;;;;;;;18.67;11.37;;;;;;;;;;4932180;29;20185;-78
2023/12/15 06:06:39;;;;;;;19.43;13.37;;;;;;;;;;4930465;29;20212;-77
2023/12/15 06:09:04;;;;;;;27.43;15.17;;;;;;;;;;4927819;29;20174;-79
2023/12/15 06:11:29;;;;;;;24.30;15.90;;;;;;;;;;4931404;29;20277;-79
2023/12/15 06:13:56;;;;;;;23.53;13.73;;;;;;;;;;4930030;29;20182;-79
2023/12/15 06:16:21;;;;;;;22.90;13.10;;;;;;;;;;4946215;29;20182;-79
2023/12/15 06:18:46;;;;;;;26.10;15.33;;;;;;;;;;4924270;29;20188;-79
2023/12/15 06:21:25;;;;;;;20.63;12.67;;;;;;;;;;4931390;29;20189;-79
2023/12/15 06:23:51;;;;;;;20.80;13.33;;;;;;;;;;4928638;29;20241;-79
2023/12/15 06:26:20;;;;;;;43.33;23.73;;;;;;;;;;4924802;29;20463;-79
2023/12/15 06:28:45;;;;;;;29.10;14.47;;;;;;;;;;4942780;29;20201;-79
2023/12/15 06:31:10;;;;;;;23.57;15.83;;;;;;;;;;4922959;29;20182;-78
2023/12/15 06:33:35;;;;;;;25.70;13.23;;;;;;;;;;4922849;29;20174;-79
2023/12/15 06:36:01;;;;;;;25.00;13.83;;;;;;;;;;4931026;28;20198;-78
2023/12/15 06:38:26;;;;;;;23.30;14.23;;;;;;;;;;4931978;29;20185;-78
2023/12/15 06:40:51;;;;;;;24.30;13.97;;;;;;;;;;4930928;29;20190;-78
2023/12/15 06:43:16;;;;;;;24.23;15.10;;;;;;;;;;4927146;29;20186;-79
2023/12/15 06:45:41;;;;;;;22.47;12.90;;;;;;;;;;4927772;29;20230;-79
2023/12/15 06:48:07;;;;;;;23.40;14.60;;;;;;;;;;4928859;29;20182;-78
2023/12/15 06:50:32;;;;;;;22.03;14.77;;;;;;;;;;4930772;29;20175;-79
2023/12/15 06:52:57;;;;;;;26.03;14.67;;;;;;;;;;4933323;29;20318;-79
2023/12/15 06:55:23;;;;;;;25.40;14.50;;;;;;;;;;4930697;29;20197;-79
2023/12/15 06:57:48;;;;;;;23.27;14.17;;;;;;;;;;4944616;28;20182;-79
2023/12/15 07:00:13;;;;;;;24.07;15.83;;;;;;;;;;4936234;29;20273;-79
2023/12/15 07:02:38;;;;;;;26.83;15.53;;;;;;;;;;4929353;29;20276;-78
2023/12/15 07:05:04;;;;;;;26.63;15.57;;;;;;;;;;4933311;29;20179;-79
2023/12/15 07:07:29;;;;;;;24.57;13.97;;;;;;;;;;4922959;29;20205;-79
2023/12/15 07:09:54;;;;;;;23.20;14.97;;;;;;;;;;4929014;29;20187;-79
2023/12/15 07:12:20;;;;;;;27.37;17.20;;;;;;;;;;4930438;29;20254;-79
2023/12/15 07:14:45;;;;;;;25.47;15.37;;;;;;;;;;4926315;29;20182;-79
2023/12/15 07:17:11;;;;;;;21.20;12.93;;;;;;;;;;4928653;29;20257;-78
2023/12/15 07:19:36;;;;;;;22.70;14.90;;;;;;;;;;4925278;29;20210;-79
2023/12/15 07:22:01;;;;;;;24.37;12.90;;;;;;;;;;4926542;29;20402;-79
2023/12/15 07:24:26;;;;;;;28.83;18.93;;;;;;;;;;4931390;29;20175;-79
2023/12/15 07:26:52;;;;;;;23.20;13.43;;;;;;;;;;4930228;29;20202;-79
2023/12/15 07:29:17;;;;;;;23.30;14.03;;;;;;;;;;4931238;29;20246;-79
2023/12/15 07:31:43;;;;;;;21.50;13.07;;;;;;;;;;4922539;29;20193;-79
2023/12/15 07:34:08;;;;;;;20.27;13.47;;;;;;;;;;4928910;29;20188;-79
2023/12/15 07:36:33;;;;;;;22.47;15.17;;;;;;;;;;4928307;29;20257;-80
2023/12/15 07:38:59;;;;;;;17.00;11.07;;;;;;;;;;4928071;29;20182;-79
2023/12/15 07:41:24;;;;;;;18.10;12.10;;;;;;;;;;4944480;29;20178;-80
2023/12/15 07:43:50;;;;;;;19.37;13.73;;;;;;;;;;4926110;29;20186;-77
2023/12/15 07:46:18;;;;;;;19.00;12.80;;;;;;;;;;4926875;29;20345;-80
2023/12/15 07:48:43;;;;;;;19.97;13.53;;;;;;;;;;4936686;29;20181;-79
2023/12/15 07:51:16;;;;;;;18.93;11.83;;;;;;;;;;4929813;29;20323;-80
2023/12/15 07:53:42;;;;;;;17.63;11.47;;;;;;;;;;4929658;29;20182;-79
2023/12/15 07:56:07;;;;;;;21.13;16.23;;;;;;;;;;4928677;29;20182;-79
2023/12/15 07:58:33;;;;;;;19.27;12.37;;;;;;;;;;4936128;28;20178;-79
2023/12/15 08:00:58;;;;;;;21.00;14.00;;;;;;;;;;4922781;29;20234;-79
2023/12/15 08:03:23;;;;;;;16.43;10.80;;;;;;;;;;4926604;29;20194;-79
2023/12/15 08:05:49;;;;;;;17.27;11.53;;;;;;;;;;4927173;29;20206;-79
2023/12/15 08:08:14;;;;;;;20.87;11.57;;;;;;;;;;4927442;28;20185;-79
2023/12/15 08:10:39;;;;;;;15.00;10.73;;;;;;;;;;4932942;29;20190;-79
2023/12/15 08:13:04;;;;;;;14.97;11.07;;;;;;;;;;4933382;29;20277;-79
2023/12/15 08:15:30;;;;;;;14.10;10.20;;;;;;;;;;4935211;29;20205;-78
2023/12/15 08:17:56;;;;;;;14.63;9.93;;;;;;;;;;4934271;29;20278;-79
2023/12/15 08:20:22;;;;;;;17.97;9.70;;;;;;;;;;4933936;29;20962;-79
2023/12/15 08:22:47;;;;;;;17.30;8.53;;;;;;;;;;4932376;29;20189;-79
2023/12/15 08:25:12;;;;;;;18.40;9.83;;;;;;;;;;4932933;29;20349;-77
2023/12/15 08:27:40;;;;;;;14.13;9.07;;;;;;;;;;4935202;29;20188;-78
2023/12/15 08:30:06;;;;;;;12.27;8.87;;;;;;;;;;4929392;29;20182;-77
2023/12/15 08:32:31;;;;;;;14.33;8.53;;;;;;;;;;4942211;29;20181;-78
2023/12/15 08:34:57;;;;;;;12.27;7.60;;;;;;;;;;4926559;28;20180;-77
2023/12/15 08:37:22;;;;;;;10.33;7.60;;;;;;;;;;4932801;29;20225;-77
2023/12/15 08:39:47;;;;;;;9.03;6.73;;;;;;;;;;4932887;29;20198;-76
2023/12/15 08:42:13;;;;;;;9.83;6.97;;;;;;;;;;4932767;29;20270;-77
2023/12/15 08:44:38;;;;;;;8.63;7.10;;;;;;;;;;4935117;29;20182;-77
2023/12/15 08:47:03;;;;;;;10.73;5.70;;;;;;;;;;4929840;29;20195;-77
2023/12/15 08:49:28;;;;;;;11.40;8.47;;;;;;;;;;4936942;29;20193;-76
2023/12/15 08:51:54;;;;;;;9.87;8.43;;;;;;;;;;4934735;29;20182;-76
2023/12/15 08:54:19;;;;;;;11.47;7.90;;;;;;;;;;4928829;29;20206;-77
2023/12/15 08:56:44;;;;;;;10.60;7.13;;;;;;;;;;4937943;29;20181;-77
2023/12/15 08:59:09;;;;;;;10.70;5.80;;;;;;;;;;4931246;29;20212;-77
2023/12/15 09:01:34;;;;;;;9.33;6.83;;;;;;;;;;4925940;29;20184;-77
2023/12/15 09:04:00;;;;;;;8.70;6.17;;;;;;;;;;4932177;29;20195;-78
2023/12/15 09:06:25;;;;;;;9.40;6.00;;;;;;;;;;4937693;29;20205;-76
2023/12/15 09:08:50;;;;;;;9.93;6.23;;;;;;;;;;4934396;29;20296;-77
2023/12/15 09:11:15;;;;;;;10.77;7.77;;;;;;;;;;4946875;28;20187;-77
2023/12/15 09:13:40;;;;;;;10.87;7.63;;;;;;;;;;4934510;29;20230;-77
2023/12/15 09:16:06;;;;;;;10.30;7.13;;;;;;;;;;4935392;29;20182;-77
2023/12/15 09:18:31;;;;;;;7.63;6.07;;;;;;;;;;4935024;29;20194;-76
2023/12/15 09:20:56;;;;;;;9.73;7.03;;;;;;;;;;4925639;29;20193;-77
2023/12/15 09:23:22;;;;;;;8.73;6.27;;;;;;;;;;4945732;28;20215;-77
2023/12/15 09:25:47;;;;;;;8.90;7.30;;;;;;;;;;4933294;29;20241;-77
2023/12/15 09:28:13;;;;;;;9.03;7.40;;;;;;;;;;4932626;29;20190;-77
2023/12/15 09:30:38;;;;;;;9.23;7.17;;;;;;;;;;4924946;29;20209;-77
2023/12/15 09:33:03;;;;;;;11.23;7.40;;;;;;;;;;4928405;29;20186;-77
2023/12/15 09:35:28;;;;;;;10.23;7.97;;;;;;;;;;4930127;29;20274;-77
2023/12/15 09:37:54;;;;;;;9.70;6.70;;;;;;;;;;4926110;29;20244;-77
2023/12/15 09:40:20;;;;;;;17.03;12.40;;;;;;;;;;4925757;29;20198;-77
2023/12/15 09:42:46;;;;;;;12.80;9.23;;;;;;;;;;4937169;29;20581;-75
2023/12/15 09:45:11;;;;;;;13.30;8.20;;;;;;;;;;4932793;29;20250;-77
2023/12/15 09:47:37;;;;;;;13.70;8.53;;;;;;;;;;4926855;29;20197;-76
2023/12/15 09:50:04;;;;;;;9.00;6.47;;;;;;;;;;4930919;29;20233;-77
2023/12/15 09:52:32;;;;;;;10.17;8.20;;;;;;;;;;4926965;29;20297;-77
2023/12/15 09:54:58;;;;;;;11.13;6.90;;;;;;;;;;4925012;29;20179;-77
2023/12/15 09:57:23;;;;;;;8.90;7.77;;;;;;;;;;4930632;29;20183;-77
2023/12/15 09:59:49;;;;;;;8.10;5.70;;;;;;;;;;4931797;29;22035;-77
2023/12/15 10:02:14;;;;;;;5.93;5.33;;;;;;;;;;4928266;29;20219;-77
2023/12/15 10:04:39;;;;;;;6.97;6.00;;;;;;;;;;4926177;29;20264;-77
2023/12/15 10:07:04;;;;;;;7.90;6.30;;;;;;;;;;4921981;29;20195;-76
2023/12/15 10:09:30;;;;;;;7.20;5.70;;;;;;;;;;4927714;29;20491;-77
2023/12/15 10:11:55;;;;;;;5.80;4.50;;;;;;;;;;4924978;29;20328;-77
2023/12/15 10:14:20;;;;;;;7.33;5.10;;;;;;;;;;4928513;29;20190;-76
2023/12/15 10:16:45;;;;;;;8.13;4.57;;;;;;;;;;4927657;29;20176;-77
2023/12/15 10:19:11;;;;;;;6.00;4.17;;;;;;;;;;4927731;29;20194;-77
2023/12/15 10:21:36;;;;;;;9.93;4.70;;;;;;;;;;4926766;29;20197;-77
2023/12/15 10:24:21;;;;;;;7.13;4.80;;;;;;;;;;4930267;29;20189;-77
2023/12/15 10:26:47;;;;;;;5.07;3.67;;;;;;;;;;4931289;29;20207;-77
2023/12/15 10:29:12;;;;;;;4.43;3.57;;;;;;;;;;4931192;29;20189;-77
2023/12/15 10:31:38;;;;;;;4.73;3.10;;;;;;;;;;4925879;29;20190;-77
2023/12/15 10:34:03;;;;;;;4.50;3.67;;;;;;;;;;4928183;29;20180;-77
2023/12/15 10:36:29;;;;;;;3.27;2.70;;;;;;;;;;4922667;29;20315;-77
2023/12/15 10:38:54;;;;;;;4.90;2.67;;;;;;;;;;4926003;29;20180;-77
2023/12/15 10:41:20;;;;;;;3.73;2.53;;;;;;;;;;4928969;29;20243;-76
2023/12/15 10:43:45;;;;;;;2.93;2.63;;;;;;;;;;4925854;29;20180;-77
2023/12/15 10:46:11;;;;;;;3.70;2.30;;;;;;;;;;4921528;29;20206;-76
2023/12/15 10:48:38;;;;;;;3.07;2.57;;;;;;;;;;4944823;28;20246;-76
2023/12/15 10:51:04;;;;;;;2.73;2.53;;;;;;;;;;4930840;29;20247;-77
2023/12/15 10:53:31;;;;;;;4.50;3.60;;;;;;;;;;4929173;29;20186;-77
2023/12/15 10:55:56;;;;;;;5.93;5.23;;;;;;;;;;4926647;29;20184;-77
2023/12/15 10:58:21;;;;;;;3.93;2.87;;;;;;;;;;4932781;29;20191;-76
2023/12/15 11:00:46;;;;;;;2.90;2.20;;;;;;;;;;4932443;29;20194;-77
2023/12/15 11:03:12;;;;;;;2.53;2.33;;;;;;;;;;4933496;29;21512;-77
2023/12/15 11:05:39;;;;;;;2.93;2.60;;;;;;;;;;4927602;29;20382;-76
2023/12/15 11:08:06;;;;;;;3.97;2.27;;;;;;;;;;4924398;29;20183;-77
2023/12/15 11:10:31;;;;;;;3.63;2.13;;;;;;;;;;4931042;29;20185;-76
2023/12/15 11:12:56;;;;;;;3.20;2.20;;;;;;;;;;4930305;29;20179;-77
2023/12/15 11:15:22;;;;;;;4.37;2.70;;;;;;;;;;4930892;29;20234;-77
2023/12/15 11:17:54;;;;;;;8.03;4.07;;;;;;;;;;4925315;29;20178;-77
2023/12/15 11:20:19;;;;;;;3.17;2.30;;;;;;;;;;4926422;29;20235;-77
2023/12/15 11:22:51;;;;;;;2.30;1.73;;;;;;;;;;4933531;29;20185;-77
2023/12/15 11:25:20;;;;;;;3.50;2.00;;;;;;;;;;4926333;29;20183;-77
2023/12/15 11:27:58;;;;;;;2.27;2.00;;;;;;;;;;4929821;29;20175;-75
2023/12/15 11:30:27;;;;;;;2.70;2.10;;;;;;;;;;4933043;29;20174;-77
2023/12/15 11:32:52;;;;;;;4.43;3.63;;;;;;;;;;4920273;29;20183;-77
2023/12/15 11:35:32;;;;;;;2.13;1.93;;;;;;;;;;4927176;29;20182;-77
2023/12/15 11:37:58;;;;;;;2.97;2.37;;;;;;;;;;4926804;29;20343;-76
2023/12/15 11:40:24;;;;;;;2.60;2.40;;;;;;;;;;4929649;29;20263;-77
2023/12/15 11:42:51;;;;;;;2.23;2.03;;;;;;;;;;4944821;28;20182;-77
2023/12/15 11:45:17;;;;;;;1.90;1.70;;;;;;;;;;4927898;29;20189;-77
2023/12/15 11:47:43;;;;;;;3.60;2.87;;;;;;;;;;4929448;29;20187;-77
2023/12/15 11:50:08;;;;;;;2.33;1.70;;;;;;;;;;4930052;29;20175;-77
2023/12/15 11:52:38;;;;;;;1.90;1.70;;;;;;;;;;4923369;29;20224;-77
2023/12/15 11:55:04;;;;;;;1.60;1.40;;;;;;;;;;4924787;29;20178;-77
2023/12/15 11:57:29;;;;;;;1.57;1.47;;;;;;;;;;4930621;29;20188;-77
2023/12/15 11:59:54;;;;;;;1.80;1.53;;;;;;;;;;4930480;29;20227;-77
2023/12/15 12:02:19;;;;;;;4.00;2.87;;;;;;;;;;4929675;29;20183;-77
2023/12/15 12:04:48;;;;;;;16.33;8.27;;;;;;;;;;4931420;29;20204;-77
2023/12/15 12:07:13;;;;;;;13.30;7.07;;;;;;;;;;4927441;29;20270;-77
2023/12/15 12:09:39;;;;;;;3.30;2.60;;;;;;;;;;4922887;29;20181;-77
2023/12/15 12:12:04;;;;;;;2.60;2.30;;;;;;;;;;4927191;29;21101;-76
2023/12/15 12:14:29;;;;;;;7.13;6.43;;;;;;;;;;4929518;29;20184;-77
2023/12/15 12:16:55;;;;;;;3.40;2.63;;;;;;;;;;4933473;29;20193;-76
2023/12/15 12:19:21;;;;;;;1.67;1.57;;;;;;;;;;4928132;29;20176;-76
2023/12/15 12:21:47;;;;;;;2.87;2.00;;;;;;;;;;4929767;29;20278;-77
2023/12/15 12:24:12;;;;;;;3.37;2.30;;;;;;;;;;4926934;29;20290;-77
2023/12/15 12:26:37;;;;;;;2.13;1.93;;;;;;;;;;4925461;29;20202;-77
2023/12/15 12:29:02;;;;;;;2.50;2.13;;;;;;;;;;4924790;29;20192;-77
2023/12/15 12:31:28;;;;;;;5.37;4.13;;;;;;;;;;4930180;29;20185;-77
2023/12/15 12:33:53;;;;;;;9.37;7.33;;;;;;;;;;4928169;29;20273;-77
2023/12/15 12:36:18;;;;;;;6.43;4.33;;;;;;;;;;4928482;29;20258;-77
2023/12/15 12:38:46;;;;;;;2.80;2.23;;;;;;;;;;4929470;29;20205;-77
2023/12/15 12:41:12;;;;;;;4.27;2.20;;;;;;;;;;4922843;29;20212;-76
2023/12/15 12:43:38;;;;;;;1.80;1.60;;;;;;;;;;4945580;28;20244;-77
2023/12/15 12:46:04;;;;;;;2.10;1.90;;;;;;;;;;4927068;29;20229;-76
2023/12/15 12:48:30;;;;;;;2.33;2.13;;;;;;;;;;4926847;28;20186;-74
2023/12/15 12:50:55;;;;;;;3.47;2.37;;;;;;;;;;4928199;29;20180;-74
2023/12/15 12:53:20;;;;;;;4.03;2.50;;;;;;;;;;4939405;28;20181;-74
2023/12/15 12:55:45;;;;;;;2.10;1.90;;;;;;;;;;4933796;29;20211;-74
2023/12/15 12:58:10;;;;;;;3.13;1.30;;;;;;;;;;4932588;29;20286;-74
2023/12/15 13:00:36;;;;;;;2.93;1.70;;;;;;;;;;4931539;29;20193;-74
2023/12/15 13:03:01;;;;;;;3.90;2.10;;;;;;;;;;4948003;28;20187;-74
2023/12/15 13:05:26;;;;;;;2.20;1.97;;;;;;;;;;4930861;29;20226;-73
2023/12/15 13:07:51;;;;;;;4.10;2.23;;;;;;;;;;4932189;29;20181;-74
2023/12/15 13:10:17;;;;;;;5.57;2.27;;;;;;;;;;4931291;29;21372;-74
2023/12/15 13:12:50;;;;;;;2.10;1.70;;;;;;;;;;4928149;29;20184;-73
2023/12/15 13:15:16;;;;;;;2.10;1.70;;;;;;;;;;4933299;29;20195;-74
2023/12/15 13:17:42;;;;;;;3.33;1.90;;;;;;;;;;4930565;29;20300;-74
2023/12/15 13:20:09;;;;;;;3.77;2.57;;;;;;;;;;4930336;29;20174;-74
2023/12/15 13:22:34;;;;;;;2.33;2.10;;;;;;;;;;4925933;29;20198;-74
2023/12/15 13:24:59;;;;;;;2.50;2.10;;;;;;;;;;4927895;29;20188;-74
2023/12/15 13:27:25;;;;;;;2.60;2.37;;;;;;;;;;4950763;28;20204;-73
2023/12/15 13:29:50;;;;;;;4.90;2.50;;;;;;;;;;4932688;29;20196;-74
2023/12/15 13:32:16;;;;;;;2.80;2.33;;;;;;;;;;4927026;29;20231;-74
2023/12/15 13:34:41;;;;;;;3.07;2.50;;;;;;;;;;4928844;29;20191;-73
2023/12/15 13:37:06;;;;;;;7.27;4.10;;;;;;;;;;4931890;29;20228;-73
2023/12/15 13:39:32;;;;;;;3.80;2.20;;;;;;;;;;4927034;29;20314;-73
2023/12/15 13:41:57;;;;;;;4.63;2.43;;;;;;;;;;4925268;29;20273;-74
2023/12/15 13:44:23;;;;;;;2.77;2.33;;;;;;;;;;4928246;29;20189;-73
2023/12/15 13:46:52;;;;;;;2.83;2.57;;;;;;;;;;4934561;29;20213;-73
2023/12/15 13:49:17;;;;;;;2.70;2.50;;;;;;;;;;4931122;29;20196;-73
2023/12/15 13:51:43;;;;;;;4.43;2.80;;;;;;;;;;4928012;29;20171;-73
2023/12/15 13:54:08;;;;;;;4.33;2.83;;;;;;;;;;4929578;29;20185;-73
2023/12/15 13:56:33;;;;;;;3.00;2.70;;;;;;;;;;4935338;29;20206;-74
2023/12/15 13:58:58;;;;;;;3.87;2.53;;;;;;;;;;4933677;29;20204;-73
2023/12/15 14:01:23;;;;;;;3.50;2.87;;;;;;;;;;4923276;29;20190;-74
2023/12/15 14:03:49;;;;;;;3.30;2.53;;;;;;;;;;4925041;29;20180;-74
2023/12/15 14:06:14;;;;;;;3.97;2.50;;;;;;;;;;4931179;29;20274;-74
2023/12/15 14:08:40;;;;;;;2.67;2.20;;;;;;;;;;4932615;29;20186;-74
2023/12/15 14:11:05;;;;;;;2.50;2.30;;;;;;;;;;4925744;29;20188;-75
2023/12/15 14:13:31;;;;;;;3.10;2.30;;;;;;;;;;4927219;29;20229;-74
2023/12/15 14:15:56;;;;;;;3.07;2.37;;;;;;;;;;4929769;29;20208;-74
2023/12/15 14:18:22;;;;;;;5.33;3.07;;;;;;;;;;4929912;29;20180;-74
2023/12/15 14:20:48;;;;;;;2.60;2.40;;;;;;;;;;4929481;29;20504;-75
2023/12/15 14:23:13;;;;;;;5.43;2.77;;;;;;;;;;4926423;28;20187;-73